Wind From: 11-12-2017 04:25 Until: 16:00 warning for: Wind Level: Orange info button

Power and phone distribution networks may be disrupted for relatively long periods., Roofs and chimneys can be damaged. , Tree branches may break. , Vehicles can be deported. , Traffic may be disrupted, particularly on secondary roads in forest areas. Limit your trips. , Limit your speed in highway driving, especially if you drive a vehicle or hitch sensitive to wind. , Do not go for walks in forests or along the coast., In town, be vigilant against possible falling objects., Do not work on roofs and do not touch any electrical line fallen on the ground., Store or secure sensitive objects to wind or likely to be damaged., Always install power generators outside buildings. 


Meteo18 Weather Cam more information Meteo18 Weather Cam


Thunder radar more information blitzortung!


Rain radar more information rain snow radar


Visit our other weather sites:

Template documentation
and downloads

And another site



Weather Underground History page Text

Daily Summary for April 6, 2017 Units:  English    Metric   Both
« Previous Day
Next Day »
Daily Weekly Monthly Yearly Custom
  High: Low: Average:
Temperature: 53.6 °F 39.9 °F 46.9 °F
Dew Point: 42.1 °F 34.9 °F 38.3 °F
Humidity: 88 % 53 % 73 %
Wind Speed: 25 mph 0 mph 7.5 mph
Wind Gust: 26 mph - -
Wind:- - ESE
Pressure: 30.4 in 30.3 in -
Precipitation: 0 in    
Historical Graphs
 
 
Tabular Data for April 6, 2017
Time Temperature Dew Point Pressure Wind Wind Speed Wind Gust Humidity Rainfall Rate (Hourly)
00:02 48 °F 41.9 °F 30.3 in NW 3 mph 8 mph 79 % 0 in
00:07 48 °F 41.9 °F 30.3 in NNW 5 mph 10 mph 79 % 0 in
00:12 48.2 °F 42.1 °F 30.3 in North 2 mph 10 mph 79 % 0 in
00:17 48.2 °F 42.1 °F 30.3 in NNE 2 mph 9 mph 79 % 0 in
00:22 48 °F 41.9 °F 30.3 in NE 2 mph 10 mph 79 % 0 in
00:27 48 °F 41.9 °F 30.3 in North 2 mph 10 mph 79 % 0 in
00:32 48 °F 41.5 °F 30.3 in NNW 2 mph 9 mph 78 % 0 in
00:42 48 °F 41.5 °F 30.3 in NNW 4 mph 12 mph 78 % 0 in
00:47 48.2 °F 41.7 °F 30.3 in NNE 3 mph 12 mph 78 % 0 in
00:52 48 °F 41.5 °F 30.3 in NNW 4 mph 11 mph 78 % 0 in
00:57 48 °F 41.5 °F 30.3 in North 4 mph 10 mph 78 % 0 in
01:02 48 °F 41.5 °F 30.3 in NNW 7 mph 10 mph 78 % 0 in
01:12 47.8 °F 41.4 °F 30.4 in NW 5 mph 14 mph 78 % 0 in
01:17 47.7 °F 41.2 °F 30.3 in North 9 mph 14 mph 78 % 0 in
01:22 47.7 °F 41.2 °F 30.4 in North 4 mph 14 mph 78 % 0 in
01:27 47.5 °F 41 °F 30.3 in NNE 3 mph 14 mph 78 % 0 in
01:32 47.5 °F 41.4 °F 30.3 in NNE 6 mph 14 mph 79 % 0 in
01:37 47.3 °F 41.2 °F 30.3 in NE 5 mph 16 mph 79 % 0 in
01:42 47.1 °F 41 °F 30.4 in North 11 mph 16 mph 79 % 0 in
01:47 47.1 °F 41 °F 30.3 in North 7 mph 13 mph 79 % 0 in
01:57 46.8 °F 41 °F 30.4 in North 11 mph 13 mph 80 % 0 in
02:02 46.8 °F 41 °F 30.4 in NNE 5 mph 13 mph 80 % 0 in
02:07 46.4 °F 40.6 °F 30.4 in NNW 7 mph 14 mph 80 % 0 in
02:12 46.2 °F 40.6 °F 30.4 in NNE 2 mph 14 mph 81 % 0 in
02:17 46 °F 40.8 °F 30.4 in North 8 mph 14 mph 82 % 0 in
02:22 45.9 °F 40.6 °F 30.4 in NNE 7 mph 14 mph 82 % 0 in
02:27 45.7 °F 40.5 °F 30.4 in NNW 14 mph 14 mph 82 % 0 in
02:32 45.3 °F 40.1 °F 30.4 in North 3 mph 17 mph 82 % 0 in
02:37 45.3 °F 40.5 °F 30.3 in NE 6 mph 17 mph 83 % 0 in
02:42 45.3 °F 40.5 °F 30.4 in NNE 2 mph 17 mph 83 % 0 in
02:47 45.1 °F 40.3 °F 30.3 in North 8 mph 15 mph 83 % 0 in
02:52 45.1 °F 40.3 °F 30.3 in NW 2 mph 14 mph 83 % 0 in
02:57 45 °F 40.1 °F 30.3 in NE 6 mph 14 mph 83 % 0 in
03:02 45 °F 40.1 °F 30.3 in NE 5 mph 14 mph 83 % 0 in
03:12 44.8 °F 39.9 °F 30.3 in North 6 mph 16 mph 83 % 0 in
03:17 44.6 °F 39.7 °F 30.3 in NNE 5 mph 17 mph 83 % 0 in
03:22 44.4 °F 39.6 °F 30.3 in NNE 4 mph 17 mph 83 % 0 in
03:27 44.2 °F 39.7 °F 30.3 in NNE 5 mph 17 mph 84 % 0 in
03:32 44.1 °F 39.6 °F 30.3 in NW 4 mph 13 mph 84 % 0 in
03:37 44.1 °F 39.6 °F 30.3 in NNW 3 mph 11 mph 84 % 0 in
03:42 43.9 °F 39.4 °F 30.3 in NNE 4 mph 10 mph 84 % 0 in
03:47 43.7 °F 39.6 °F 30.3 in NNE 4 mph 13 mph 85 % 0 in
03:52 43.5 °F 39.4 °F 30.3 in North 2 mph 13 mph 85 % 0 in
03:57 43.5 °F 39.4 °F 30.3 in NNW 6 mph 11 mph 85 % 0 in
04:02 43.3 °F 39.2 °F 30.3 in North 6 mph 11 mph 85 % 0 in
04:12 43.2 °F 39 °F 30.3 in NNE 4 mph 12 mph 85 % 0 in
04:17 43 °F 38.8 °F 30.3 in North 4 mph 12 mph 85 % 0 in
04:22 43 °F 38.8 °F 30.3 in North 4 mph 11 mph 85 % 0 in
04:27 42.6 °F 38.7 °F 30.3 in NNW 5 mph 11 mph 86 % 0 in
04:32 42.6 °F 38.7 °F 30.3 in NNW 5 mph 11 mph 86 % 0 in
04:37 42.4 °F 38.5 °F 30.3 in North 5 mph 12 mph 86 % 0 in
04:42 42.3 °F 38.3 °F 30.3 in NNE 2 mph 12 mph 86 % 0 in
04:47 42.3 °F 38.3 °F 30.3 in NNE 6 mph 12 mph 86 % 0 in
04:52 42.1 °F 38.1 °F 30.3 in NNW 2 mph 10 mph 86 % 0 in
04:57 41.9 °F 37.9 °F 30.3 in NNE 9 mph 10 mph 86 % 0 in
05:02 41.9 °F 37.9 °F 30.3 in NW 2 mph 13 mph 86 % 0 in
05:07 41.7 °F 37.8 °F 30.3 in NNE 10 mph 13 mph 86 % 0 in
05:12 41.9 °F 37.8 °F 30.3 in NNW 6 mph 13 mph 85 % 0 in
05:17 41.7 °F 37.6 °F 30.3 in North 4 mph 12 mph 85 % 0 in
05:22 41.7 °F 37.6 °F 30.3 in North 5 mph 15 mph 85 % 0 in
05:32 41.5 °F 37.4 °F 30.3 in NNE 5 mph 15 mph 85 % 0 in
05:37 41.4 °F 37.2 °F 30.3 in NNE 7 mph 14 mph 85 % 0 in
05:42 41.4 °F 37.2 °F 30.3 in ENE 3 mph 14 mph 85 % 0 in
05:47 41.2 °F 37 °F 30.3 in North 5 mph 14 mph 85 % 0 in
05:52 41.4 °F 37.2 °F 30.3 in ENE 7 mph 14 mph 85 % 0 in
05:57 41.2 °F 37 °F 30.3 in NNE 8 mph 12 mph 85 % 0 in
06:02 41.2 °F 37 °F 30.3 in NNW 4 mph 12 mph 85 % 0 in
06:07 40.8 °F 36.7 °F 30.3 in North 3 mph 12 mph 85 % 0 in
06:12 41 °F 37.2 °F 30.3 in North 6 mph 12 mph 86 % 0 in
06:17 41 °F 36.9 °F 30.3 in North 3 mph 12 mph 85 % 0 in
06:22 40.8 °F 36.7 °F 30.3 in NNE 4 mph 15 mph 85 % 0 in
06:27 40.8 °F 37 °F 30.3 in NNE 7 mph 15 mph 86 % 0 in
06:32 40.8 °F 37 °F 30.3 in NNE 11 mph 15 mph 86 % 0 in
06:37 40.8 °F 37 °F 30.3 in ENE 6 mph 14 mph 86 % 0 in
06:42 40.6 °F 36.9 °F 30.3 in NNE 4 mph 14 mph 86 % 0 in
06:47 40.6 °F 36.9 °F 30.3 in NW 6 mph 14 mph 86 % 0 in
06:52 40.5 °F 36.7 °F 30.3 in ENE 6 mph 14 mph 86 % 0 in
06:57 40.5 °F 36.7 °F 30.3 in NE 6 mph 14 mph 86 % 0 in
07:02 40.3 °F 36.7 °F 30.3 in NNW 5 mph 11 mph 87 % 0 in
07:07 40.3 °F 36.7 °F 30.3 in NW 6 mph 13 mph 87 % 0 in
07:12 40.1 °F 36.5 °F 30.3 in NNW 6 mph 13 mph 87 % 0 in
07:17 40.1 °F 36.5 °F 30.3 in NE 6 mph 13 mph 87 % 0 in
07:22 39.9 °F 36.3 °F 30.3 in NE 6 mph 16 mph 87 % 0 in
07:27 39.9 °F 36.7 °F 30.3 in ENE 5 mph 16 mph 88 % 0 in
07:32 39.9 °F 36.7 °F 30.4 in NNE 9 mph 12 mph 88 % 0 in
07:37 39.9 °F 36.7 °F 30.4 in NW 3 mph 14 mph 88 % 0 in
07:47 39.9 °F 36.7 °F 30.4 in North 5 mph 14 mph 88 % 0 in
07:52 40.1 °F 36.9 °F 30.4 in North 6 mph 14 mph 88 % 0 in
07:57 40.3 °F 37 °F 30.4 in NW 7 mph 13 mph 88 % 0 in
08:02 40.3 °F 36.7 °F 30.4 in NNE 7 mph 14 mph 87 % 0 in
08:07 40.5 °F 36.9 °F 30.4 in North 7 mph 14 mph 87 % 0 in
08:12 40.5 °F 36.9 °F 30.4 in NNE 6 mph 13 mph 87 % 0 in
08:17 40.6 °F 37 °F 30.4 in NNE 7 mph 13 mph 87 % 0 in
08:22 40.6 °F 37 °F 30.4 in NE 11 mph 14 mph 87 % 0 in
08:27 40.8 °F 37.2 °F 30.4 in NE 9 mph 16 mph 87 % 0 in
08:32 41.2 °F 37.6 °F 30.4 in NNE 5 mph 16 mph 87 % 0 in
08:37 41.4 °F 37.6 °F 30.4 in NE 10 mph 15 mph 86 % 0 in
08:42 41.5 °F 37.6 °F 30.4 in North 9 mph 16 mph 86 % 0 in
08:52 42.3 °F 38.1 °F 30.4 in NNW 12 mph 19 mph 85 % 0 in
08:57 42.6 °F 38.1 °F 30.4 in NW 8 mph 24 mph 84 % 0 in
09:07 43 °F 38.1 °F 30.4 in NE 15 mph 24 mph 83 % 0 in
09:12 43.2 °F 38.1 °F 30.4 in NNE 9 mph 20 mph 82 % 0 in
09:17 43.3 °F 37.9 °F 30.4 in NNE 10 mph 20 mph 81 % 0 in
09:22 43.5 °F 38.5 °F 30.4 in NNE 7 mph 25 mph 82 % 0 in
09:27 43.5 °F 38.1 °F 30.4 in NE 14 mph 25 mph 81 % 0 in
09:32 43.5 °F 38.5 °F 30.4 in NNE 3 mph 20 mph 82 % 0 in
09:37 43.5 °F 38.1 °F 30.4 in NNW 12 mph 21 mph 81 % 0 in
09:42 43.5 °F 38.1 °F 30.4 in NNE 15 mph 21 mph 81 % 0 in
09:47 43.7 °F 38.3 °F 30.4 in NNE 13 mph 21 mph 81 % 0 in
09:52 43.9 °F 38.5 °F 30.4 in North 5 mph 20 mph 81 % 0 in
09:57 44.4 °F 39.2 °F 30.4 in NE 8 mph 20 mph 82 % 0 in
10:02 44.8 °F 39.4 °F 30.4 in NNE 15 mph 20 mph 81 % 0 in
10:12 44.6 °F 39.2 °F 30.4 in NNE 8 mph 20 mph 81 % 0 in
10:17 45.3 °F 39.9 °F 30.4 in NNE 8 mph 20 mph 81 % 0 in
10:22 45.5 °F 39.4 °F 30.4 in NE 8 mph 20 mph 79 % 0 in
10:27 46.2 °F 40.5 °F 30.4 in NW 4 mph 14 mph 80 % 0 in
10:32 46.6 °F 39.4 °F 30.4 in NE 6 mph 14 mph 76 % 0 in
10:37 47.1 °F 39.9 °F 30.4 in NE 4 mph 17 mph 76 % 0 in
10:42 47.1 °F 38.5 °F 30.4 in NNE 13 mph 17 mph 72 % 0 in
10:47 47.5 °F 39.2 °F 30.4 in NE 6 mph 19 mph 73 % 0 in
10:52 48 °F 39.4 °F 30.4 in ENE 9 mph 19 mph 72 % 0 in
10:57 47.8 °F 37.8 °F 30.4 in NNE 13 mph 16 mph 68 % 0 in
11:02 47.5 °F 37.8 °F 30.4 in NE 18 mph 18 mph 69 % 0 in
11:07 47.7 °F 37.6 °F 30.4 in NNE 13 mph 21 mph 68 % 0 in
11:12 47.8 °F 37.8 °F 30.4 in NNE 14 mph 21 mph 68 % 0 in
11:17 48.2 °F 37.8 °F 30.4 in NE 14 mph 21 mph 67 % 0 in
11:22 48.6 °F 37.4 °F 30.4 in NNE 13 mph 20 mph 65 % 0 in
11:27 48.9 °F 38.1 °F 30.4 in NE 8 mph 20 mph 66 % 0 in
11:32 48.9 °F 37.8 °F 30.4 in ENE 11 mph 19 mph 65 % 0 in
11:37 49.1 °F 36.7 °F 30.4 in NE 17 mph 20 mph 62 % 0 in
11:42 48.9 °F 35.6 °F 30.4 in NNE 13 mph 21 mph 60 % 0 in
11:47 48.9 °F 34.9 °F 30.4 in NE 17 mph 24 mph 58 % 0 in
11:52 49.5 °F 36.1 °F 30.4 in NE 8 mph 25 mph 60 % 0 in
11:57 49.8 °F 36.1 °F 30.4 in NE 9 mph 25 mph 59 % 0 in
12:02 50 °F 35.8 °F 30.4 in North 18 mph 25 mph 58 % 0 in
12:07 50.2 °F 36.3 °F 30.4 in NE 19 mph 21 mph 59 % 0 in
12:12 50.5 °F 36 °F 30.4 in NNE 25 mph 25 mph 57 % 0 in
12:17 50.4 °F 36.1 °F 30.4 in NE 21 mph 26 mph 58 % 0 in
12:22 50.2 °F 36 °F 30.4 in ENE 12 mph 26 mph 58 % 0 in
12:32 50.4 °F 34.9 °F 30.4 in NNW 6 mph 24 mph 55 % 0 in
12:42 51.1 °F 36.3 °F 30.4 in NNW 9 mph 25 mph 57 % 0 in
12:47 51.4 °F 36.3 °F 30.4 in NNW 11 mph 25 mph 56 % 0 in
12:52 51.8 °F 36.7 °F 30.4 in NNE 10 mph 22 mph 56 % 0 in
12:57 51.4 °F 35.8 °F 30.4 in NE 19 mph 22 mph 55 % 0 in
13:02 51.4 °F 34.9 °F 30.4 in NE 10 mph 22 mph 53 % 0 in
13:07 51.6 °F 36.5 °F 30.4 in ENE 15 mph 24 mph 56 % 0 in
13:12 51.6 °F 35.1 °F 30.4 in NE 12 mph 24 mph 53 % 0 in
13:17 52 °F 36.3 °F 30.4 in NW 6 mph 23 mph 55 % 0 in
13:22 52.3 °F 37 °F 30.4 in NE 7 mph 23 mph 56 % 0 in
13:27 52.5 °F 36.9 °F 30.4 in NNE 13 mph 23 mph 55 % 0 in
13:32 52.7 °F 36.5 °F 30.4 in NE 13 mph 22 mph 54 % 0 in
13:37 52.5 °F 36.3 °F 30.4 in NNE 10 mph 22 mph 54 % 0 in
13:42 52.9 °F 37.6 °F 30.4 in ENE 12 mph 22 mph 56 % 0 in
13:47 52.5 °F 36.9 °F 30.4 in North 12 mph 20 mph 55 % 0 in
13:52 53.1 °F 37.4 °F 30.4 in North 13 mph 19 mph 55 % 0 in
13:57 52.7 °F 37.9 °F 30.4 in North 13 mph 19 mph 57 % 0 in
14:02 53.2 °F 38.8 °F 30.4 in NNW 7 mph 18 mph 58 % 0 in
14:07 53.2 °F 37.4 °F 30.4 in NNE 12 mph 19 mph 55 % 0 in
14:12 53.1 °F 37.4 °F 30.4 in NE 8 mph 19 mph 55 % 0 in
14:17 53.1 °F 37.4 °F 30.4 in NE 7 mph 22 mph 55 % 0 in
14:22 53.1 °F 37.8 °F 30.3 in North 6 mph 22 mph 56 % 0 in
14:27 53.2 °F 37 °F 30.3 in North 11 mph 22 mph 54 % 0 in
14:32 53.2 °F 38.5 °F 30.3 in NE 17 mph 22 mph 57 % 0 in
14:37 53.2 °F 37.9 °F 30.3 in North 7 mph 25 mph 56 % 0 in
14:42 53.4 °F 38.1 °F 30.3 in NE 11 mph 25 mph 56 % 0 in
14:47 53.2 °F 37.4 °F 30.3 in NNE 11 mph 20 mph 55 % 0 in
14:52 53.4 °F 39 °F 30.3 in NNE 4 mph 19 mph 58 % 0 in
14:57 53.4 °F 38.1 °F 30.3 in North 11 mph 19 mph 56 % 0 in
15:02 53.4 °F 37.6 °F 30.3 in NNE 18 mph 22 mph 55 % 0 in
15:07 53.2 °F 38.5 °F 30.3 in North 11 mph 22 mph 57 % 0 in
15:12 53.2 °F 38.5 °F 30.3 in NNE 6 mph 22 mph 57 % 0 in
15:17 53.4 °F 38.5 °F 30.3 in NNE 16 mph 22 mph 57 % 0 in
15:22 53.6 °F 38.7 °F 30.3 in NNE 10 mph 19 mph 57 % 0 in
15:27 53.4 °F 38.5 °F 30.3 in NNE 12 mph 20 mph 57 % 0 in
15:32 53.2 °F 38.5 °F 30.3 in NNE 16 mph 23 mph 57 % 0 in
15:37 53.1 °F 37.4 °F 30.3 in NNE 16 mph 23 mph 55 % 0 in
15:42 53.1 °F 37.8 °F 30.3 in ENE 10 mph 23 mph 56 % 0 in
15:47 53.1 °F 38.3 °F 30.3 in ENE 12 mph 23 mph 57 % 0 in
15:52 53.2 °F 38.8 °F 30.3 in NNW 16 mph 23 mph 58 % 0 in
15:57 53.4 °F 39.4 °F 30.3 in NNW 7 mph 19 mph 59 % 0 in
16:02 53.1 °F 39.6 °F 30.3 in North 12 mph 19 mph 60 % 0 in
16:07 52.9 °F 39.4 °F 30.3 in North 8 mph 23 mph 60 % 0 in
16:12 53.2 °F 39.7 °F 30.3 in NNE 8 mph 23 mph 60 % 0 in
16:17 53.1 °F 39.6 °F 30.3 in NE 17 mph 20 mph 60 % 0 in
16:22 52.3 °F 39.4 °F 30.3 in NNW 12 mph 20 mph 61 % 0 in
16:27 53.1 °F 39.6 °F 30.3 in NNE 11 mph 20 mph 60 % 0 in
16:32 53.1 °F 39.6 °F 30.3 in NNE 12 mph 20 mph 60 % 0 in
16:37 52.5 °F 39 °F 30.3 in North 6 mph 22 mph 60 % 0 in
16:42 52.5 °F 39 °F 30.3 in North 13 mph 22 mph 60 % 0 in
16:47 52 °F 39 °F 30.3 in NNE 8 mph 22 mph 61 % 0 in
16:52 51.8 °F 38.3 °F 30.3 in NNE 12 mph 20 mph 60 % 0 in
16:57 51.6 °F 38.7 °F 30.3 in NNW 9 mph 20 mph 61 % 0 in
17:02 52 °F 39 °F 30.3 in NW 10 mph 20 mph 61 % 0 in
17:07 51.6 °F 38.7 °F 30.3 in North 6 mph 21 mph 61 % 0 in
17:12 52.2 °F 39.2 °F 30.3 in NE 9 mph 21 mph 61 % 0 in
17:17 52.2 °F 39.2 °F 30.3 in North 13 mph 21 mph 61 % 0 in
17:22 52 °F 38.5 °F 30.3 in NNE 12 mph 19 mph 60 % 0 in
17:27 51.4 °F 38.5 °F 30.3 in NW 12 mph 20 mph 61 % 0 in
17:32 51.4 °F 38.8 °F 30.3 in NNE 13 mph 20 mph 62 % 0 in
17:37 51.6 °F 39 °F 30.3 in NE 12 mph 22 mph 62 % 0 in
17:42 51.6 °F 39 °F 30.3 in NNE 10 mph 22 mph 62 % 0 in
17:47 51.8 °F 39.2 °F 30.3 in NNE 10 mph 22 mph 62 % 0 in
17:52 51.6 °F 39 °F 30.3 in NW 4 mph 18 mph 62 % 0 in
17:57 51.3 °F 39 °F 30.3 in NNW 6 mph 18 mph 63 % 0 in
18:02 51.6 °F 39 °F 30.3 in NNW 4 mph 16 mph 62 % 0 in
18:07 51.6 °F 38.7 °F 30.3 in NNE 9 mph 18 mph 61 % 0 in
18:12 51.3 °F 38.7 °F 30.3 in NNE 13 mph 23 mph 62 % 0 in
18:17 51.3 °F 39 °F 30.3 in NE 15 mph 23 mph 63 % 0 in
18:22 51.1 °F 38.5 °F 30.3 in NNW 6 mph 21 mph 62 % 0 in
18:32 51.1 °F 38.5 °F 30.3 in SSW 5 mph 20 mph 62 % 0 in
18:37 50.7 °F 38.1 °F 30.3 in NE 9 mph 18 mph 62 % 0 in
18:42 50.7 °F 38.7 °F 30.3 in NE 12 mph 15 mph 63 % 0 in
18:52 50.4 °F 39 °F 30.3 in NNE 10 mph 16 mph 65 % 0 in
18:57 50.2 °F 38.8 °F 30.3 in North 10 mph 18 mph 65 % 0 in
19:02 50.2 °F 39.2 °F 30.3 in NNW 5 mph 18 mph 66 % 0 in
19:07 50.4 °F 39 °F 30.3 in NNE 5 mph 18 mph 65 % 0 in
19:12 50.4 °F 38.7 °F 30.3 in NNE 9 mph 17 mph 64 % 0 in
19:17 50.4 °F 38.7 °F 30.3 in North 4 mph 16 mph 64 % 0 in
19:22 50.5 °F 38.8 °F 30.3 in North 7 mph 16 mph 64 % 0 in
19:27 50.4 °F 39 °F 30.3 in North 5 mph 16 mph 65 % 0 in
19:32 49.8 °F 38.5 °F 30.3 in NE 9 mph 16 mph 65 % 0 in
19:37 49.6 °F 38.7 °F 30.3 in NW 4 mph 16 mph 66 % 0 in
19:42 49.5 °F 39 °F 30.3 in North 10 mph 16 mph 67 % 0 in
19:47 49.3 °F 38.5 °F 30.3 in ENE 5 mph 14 mph 66 % 0 in
19:57 48.7 °F 38.3 °F 30.3 in North 5 mph 18 mph 67 % 0 in
20:02 48.6 °F 38.5 °F 30.3 in North 4 mph 16 mph 68 % 0 in
20:07 48.4 °F 38.3 °F 30.3 in NNE 3 mph 16 mph 68 % 0 in
20:12 48 °F 38.3 °F 30.3 in NNW 3 mph 16 mph 69 % 0 in
20:17 48 °F 38.3 °F 30.3 in NNE 7 mph 16 mph 69 % 0 in
20:22 47.7 °F 38.3 °F 30.3 in North 7 mph 14 mph 70 % 0 in
20:27 47.7 °F 38.3 °F 30.3 in NNE 16 mph 17 mph 70 % 0 in
20:32 47.7 °F 37.9 °F 30.3 in NE 5 mph 18 mph 69 % 0 in
20:37 47.7 °F 37.9 °F 30.3 in NNE 4 mph 18 mph 69 % 0 in
20:42 47.7 °F 38.3 °F 30.3 in NNE 6 mph 18 mph 70 % 0 in
20:47 47.3 °F 37.9 °F 30.3 in NNE 5 mph 16 mph 70 % 0 in
20:52 46.9 °F 38.1 °F 30.3 in NNE 7 mph 13 mph 71 % 0 in
20:57 46.8 °F 38.3 °F 30.3 in NNE 5 mph 10 mph 72 % 0 in
21:02 46.6 °F 38.1 °F 30.4 in NE 6 mph 10 mph 72 % 0 in
21:07 46.6 °F 38.1 °F 30.4 in North 3 mph 9 mph 72 % 0 in
21:12 46.2 °F 38.1 °F 30.4 in NE 7 mph 9 mph 73 % 0 in
21:17 46.2 °F 38.1 °F 30.4 in NE 7 mph 9 mph 73 % 0 in
21:22 46 °F 37.9 °F 30.4 in NNW 1 mph 8 mph 73 % 0 in
21:27 46 °F 37.9 °F 30.4 in NNE 3 mph 8 mph 73 % 0 in
21:32 45.9 °F 38.1 °F 30.4 in NE 4 mph 10 mph 74 % 0 in
21:42 45.7 °F 37.9 °F 30.4 in NNE 7 mph 8 mph 74 % 0 in
21:47 45.5 °F 38.1 °F 30.4 in North 3 mph 8 mph 75 % 0 in
21:52 45.5 °F 38.1 °F 30.4 in North 3 mph 10 mph 75 % 0 in
21:57 45.5 °F 38.1 °F 30.4 in NE 1 mph 10 mph 75 % 0 in
22:02 45.5 °F 38.1 °F 30.4 in NE 2 mph 10 mph 75 % 0 in
22:07 45.5 °F 38.1 °F 30.4 in NE 2 mph 9 mph 75 % 0 in
22:12 45.5 °F 38.1 °F 30.4 in NNE 5 mph 9 mph 75 % 0 in
22:17 45.1 °F 37.8 °F 30.4 in NNE 4 mph 9 mph 75 % 0 in
22:22 45.1 °F 37.9 °F 30.4 in NE 2 mph 9 mph 76 % 0 in
22:27 45 °F 37.9 °F 30.4 in North 3 mph 9 mph 76 % 0 in
22:32 45 °F 37.9 °F 30.4 in Calm   9 mph 76 % 0 in
22:37 44.8 °F 37.9 °F 30.4 in NNE 2 mph 7 mph 77 % 0 in
22:42 44.8 °F 37.9 °F 30.4 in NNW 1 mph 8 mph 77 % 0 in
22:52 44.2 °F 37.6 °F 30.4 in NE 5 mph 8 mph 77 % 0 in
22:57 44.2 °F 37.8 °F 30.4 in NNW 4 mph 6 mph 78 % 0 in
23:02 44.2 °F 37.8 °F 30.4 in Calm   6 mph 78 % 0 in
23:12 43.9 °F 37.4 °F 30.4 in WNW 1 mph 7 mph 78 % 0 in
23:17 43.5 °F 37 °F 30.4 in NW 1 mph 3 mph 78 % 0 in
23:22 43.3 °F 37.2 °F 30.4 in Calm   3 mph 79 % 0 in
23:27 43.3 °F 37.6 °F 30.4 in NW 2 mph 3 mph 80 % 0 in
23:32 43.3 °F 37.6 °F 30.4 in North 1 mph 3 mph 80 % 0 in
23:37 43.2 °F 37.4 °F 30.4 in Calm   3 mph 80 % 0 in
23:42 43 °F 37.2 °F 30.4 in NNW 3 mph 3 mph 80 % 0 in
23:47 43.2 °F 37.4 °F 30.4 in Calm   5 mph 80 % 0 in
23:52 43 °F 37.2 °F 30.4 in NNW 1 mph 5 mph 80 % 0 in
23:57 42.8 °F 37 °F 30.4 in NNW 1 mph 5 mph 80 % 0 in
Meteo18
Compliments of Weather Underground - 4 mb

Script developed by  Jim McMurry - jmcmurry@mwt.net Adapted for the template by  Wim van der Kuil - Leuven-Template.eu

You find our weather info also at:

European Weather Network

Weather Underground

Equipment we use:

Weather-station
Davis Vue

Weather-program
Meteohub

Weather-server
Raspberry PI 2 B+

Provider
1 and 1

Davis Vue

Meteohub

Raspberry PI 2 B+

1 and 1